SBOSBO OSL / ENGM
Speedbird OnlineSpeedbird Online OSL / ENGM

Oslo Lufthavn
08:38 6.8°C

Location Oslo, Norway
Latitude: 60.121
Longitude: 11.0502
Web Airport Website | Wikipedia
Altitude 208 Meter / 681 Feet
Distance 1,173 KM / 729 Miles
from London.
Time Zone UTC +2 hours (Europe/Oslo)
Codes IATA: OSL
ICAO: ENGM
Currency £1 equals NOK 11.92
Runways
RunwayLength (m)Surface
01L3600Asphalt
01R2950Asphalt
19L2950Asphalt
19R3600Asphalt
Radio
TypeDescriptionFrequency
APPAPP119.975
ATISATIS126.125
CLDCLNC DEL121.6
DIRDIRECTOR131.35
GNDGND121.925
MISCDE ICING131.975
OPSWINGOPS29.38
PMSVPMSV METRO134.175
TWRTWR118.3
Live ATC
METAR ENGM 060620Z 21005KT CAVOK 07/05 Q0999 NOSIG
TAF TAF ENGM 0606/0706 22008KT 9999 FEW015 SCT050 TEMPO 0612/0617 23015G25KT TEMPO 0703/0706 4000 -RADZ BKN008
Weather As Of 06 Oct 2022 08:38
Description Clear sky
Wind 9 km/h from South-West (210°)
Cloud Cover 0%
Precipitation Rain: none, Snow: none
Sunrise 07:32
Sunset 18:34
Lounges OSL Lounge , Main terminal
Rotations During the last 90 days there were
124 flights from LHR
125 flights to LHR


© 2017-2022 Speedbird Online